sensor_id;sensor_type;location;lat;lon;timestamp;pressure;altitude;pressure_sealevel;temperature;humidity
41531;BME280;58990;46.284;13.126;2022-11-15T00:00:16;99620.81;;;9.23;81.67
41531;BME280;58990;46.284;13.126;2022-11-15T00:02:41;99620.47;;;9.18;82.16
41531;BME280;58990;46.284;13.126;2022-11-15T00:05:09;99631.41;;;9.05;82.42
41531;BME280;58990;46.284;13.126;2022-11-15T00:07:35;99628.50;;;9.08;82.28
41531;BME280;58990;46.284;13.126;2022-11-15T00:10:00;99620.94;;;9.05;82.47
41531;BME280;58990;46.284;13.126;2022-11-15T00:12:27;99617.00;;;9.09;82.06
41531;BME280;58990;46.284;13.126;2022-11-15T00:14:53;99617.34;;;9.06;81.74
41531;BME280;58990;46.284;13.126;2022-11-15T00:17:18;99614.56;;;9.08;81.60
41531;BME280;58990;46.284;13.126;2022-11-15T00:19:44;99614.72;;;9.15;81.65
41531;BME280;58990;46.284;13.126;2022-11-15T00:22:10;99611.66;;;9.19;81.80
41531;BME280;58990;46.284;13.126;2022-11-15T00:24:35;99614.91;;;9.21;80.69
41531;BME280;58990;46.284;13.126;2022-11-15T00:27:00;99610.16;;;9.25;80.61
41531;BME280;58990;46.284;13.126;2022-11-15T00:29:26;99603.78;;;9.28;79.94
41531;BME280;58990;46.284;13.126;2022-11-15T00:31:52;99613.13;;;9.30;79.92
41531;BME280;58990;46.284;13.126;2022-11-15T00:34:18;99602.94;;;9.27;80.42
41531;BME280;58990;46.284;13.126;2022-11-15T00:36:46;99599.69;;;9.25;81.04
41531;BME280;58990;46.284;13.126;2022-11-15T00:39:11;99600.50;;;9.17;81.20
41531;BME280;58990;46.284;13.126;2022-11-15T00:41:37;99607.53;;;9.00;82.11
41531;BME280;58990;46.284;13.126;2022-11-15T00:44:02;99600.63;;;8.83;82.61
41531;BME280;58990;46.284;13.126;2022-11-15T00:46:28;99601.59;;;8.73;83.44
41531;BME280;58990;46.284;13.126;2022-11-15T00:48:53;99593.41;;;8.68;84.20
41531;BME280;58990;46.284;13.126;2022-11-15T00:51:18;99591.75;;;8.67;84.33
41531;BME280;58990;46.284;13.126;2022-11-15T00:53:44;99590.44;;;8.63;84.07
41531;BME280;58990;46.284;13.126;2022-11-15T00:56:09;99594.38;;;8.67;83.84
41531;BME280;58990;46.284;13.126;2022-11-15T00:58:34;99590.44;;;8.63;83.81
41531;BME280;58990;46.284;13.126;2022-11-15T01:01:11;99590.09;;;8.66;83.60
41531;BME280;58990;46.284;13.126;2022-11-15T01:03:38;99578.84;;;8.66;83.58
41531;BME280;58990;46.284;13.126;2022-11-15T01:06:04;99586.00;;;8.64;83.43
41531;BME280;58990;46.284;13.126;2022-11-15T01:08:30;99573.44;;;8.59;83.49
41531;BME280;58990;46.284;13.126;2022-11-15T01:11:01;99574.00;;;8.45;84.53
41531;BME280;58990;46.284;13.126;2022-11-15T01:13:29;99571.94;;;8.48;83.91
41531;BME280;58990;46.284;13.126;2022-11-15T01:15:54;99572.44;;;8.52;83.69
41531;BME280;58990;46.284;13.126;2022-11-15T01:18:20;99576.66;;;8.53;83.58
41531;BME280;58990;46.284;13.126;2022-11-15T01:20:45;99567.53;;;8.57;83.17
41531;BME280;58990;46.284;13.126;2022-11-15T01:23:10;99568.19;;;8.59;82.77
41531;BME280;58990;46.284;13.126;2022-11-15T01:25:36;99566.88;;;8.63;83.01
41531;BME280;58990;46.284;13.126;2022-11-15T01:28:01;99568.19;;;8.59;83.02
41531;BME280;58990;46.284;13.126;2022-11-15T01:30:27;99565.41;;;8.61;82.90
41531;BME280;58990;46.284;13.126;2022-11-15T01:32:52;99562.97;;;8.59;83.01
41531;BME280;58990;46.284;13.126;2022-11-15T01:35:17;99563.59;;;8.53;83.42
41531;BME280;58990;46.284;13.126;2022-11-15T01:37:43;99559.00;;;8.47;84.06
41531;BME280;58990;46.284;13.126;2022-11-15T01:40:08;99552.13;;;8.46;84.55
41531;BME280;58990;46.284;13.126;2022-11-15T01:42:34;99555.59;;;8.54;84.50
41531;BME280;58990;46.284;13.126;2022-11-15T01:45:00;99560.66;;;8.56;84.56
41531;BME280;58990;46.284;13.126;2022-11-15T01:50:10;99552.47;;;8.51;84.87
41531;BME280;58990;46.284;13.126;2022-11-15T01:52:39;99546.28;;;8.52;85.05
41531;BME280;58990;46.284;13.126;2022-11-15T01:57:46;99548.22;;;8.50;84.37
41531;BME280;58990;46.284;13.126;2022-11-15T02:00:13;99551.16;;;8.47;84.56
41531;BME280;58990;46.284;13.126;2022-11-15T02:02:38;99549.19;;;8.49;84.61
41531;BME280;58990;46.284;13.126;2022-11-15T02:05:04;99550.38;;;8.54;84.21
41531;BME280;58990;46.284;13.126;2022-11-15T02:07:31;99550.22;;;8.56;84.09
41531;BME280;58990;46.284;13.126;2022-11-15T02:10:04;99549.69;;;8.52;84.40
41531;BME280;58990;46.284;13.126;2022-11-15T02:12:32;99544.13;;;8.47;84.75
41531;BME280;58990;46.284;13.126;2022-11-15T02:14:58;99548.53;;;8.47;84.91
41531;BME280;58990;46.284;13.126;2022-11-15T02:29:06;99536.09;;;8.49;85.40
41531;BME280;58990;46.284;13.126;2022-11-15T02:42:48;99516.44;;;8.45;85.06
41531;BME280;58990;46.284;13.126;2022-11-15T02:45:44;99520.13;;;8.52;84.86
41531;BME280;58990;46.284;13.126;2022-11-15T02:48:11;99519.13;;;8.53;84.78
41531;BME280;58990;46.284;13.126;2022-11-15T02:50:37;99517.16;;;8.47;85.14
41531;BME280;58990;46.284;13.126;2022-11-15T02:53:03;99512.22;;;8.44;84.97
41531;BME280;58990;46.284;13.126;2022-11-15T03:01:00;99512.50;;;8.32;85.40
41531;BME280;58990;46.284;13.126;2022-11-15T03:06:23;99515.47;;;8.37;85.48
41531;BME280;58990;46.284;13.126;2022-11-15T03:11:37;99510.56;;;8.34;85.42
41531;BME280;58990;46.284;13.126;2022-11-15T03:22:23;99500.09;;;8.34;85.09
41531;BME280;58990;46.284;13.126;2022-11-15T03:24:54;99500.44;;;8.39;84.65
41531;BME280;58990;46.284;13.126;2022-11-15T03:27:26;99501.75;;;8.44;84.42
41531;BME280;58990;46.284;13.126;2022-11-15T03:29:59;99500.75;;;8.45;84.54
41531;BME280;58990;46.284;13.126;2022-11-15T03:32:28;99501.97;;;8.50;84.42
41531;BME280;58990;46.284;13.126;2022-11-15T03:34:59;99493.97;;;8.52;83.45
41531;BME280;58990;46.284;13.126;2022-11-15T03:40:28;99499.66;;;8.55;83.23
41531;BME280;58990;46.284;13.126;2022-11-15T03:43:04;99492.50;;;8.57;82.72
41531;BME280;58990;46.284;13.126;2022-11-15T03:45:36;99498.84;;;8.55;83.65
41531;BME280;58990;46.284;13.126;2022-11-15T03:50:50;99499.81;;;8.46;84.64
41531;BME280;58990;46.284;13.126;2022-11-15T03:53:16;99499.94;;;8.44;84.46
41531;BME280;58990;46.284;13.126;2022-11-15T03:55:41;99492.91;;;8.45;84.48
41531;BME280;58990;46.284;13.126;2022-11-15T03:58:06;99488.41;;;8.55;83.94
41531;BME280;58990;46.284;13.126;2022-11-15T04:00:32;99488.06;;;8.58;84.22
41531;BME280;58990;46.284;13.126;2022-11-15T04:02:57;99489.69;;;8.59;83.98
41531;BME280;58990;46.284;13.126;2022-11-15T04:05:23;99483.00;;;8.65;83.77
41531;BME280;58990;46.284;13.126;2022-11-15T04:07:48;99490.69;;;8.66;83.72
41531;BME280;58990;46.284;13.126;2022-11-15T04:10:14;99491.69;;;8.65;84.17
41531;BME280;58990;46.284;13.126;2022-11-15T04:12:41;99485.44;;;8.66;83.54
41531;BME280;58990;46.284;13.126;2022-11-15T04:17:51;99488.06;;;8.66;83.26
41531;BME280;58990;46.284;13.126;2022-11-15T04:23:04;99490.69;;;8.66;83.35
41531;BME280;58990;46.284;13.126;2022-11-15T04:25:52;99495.09;;;8.66;83.46
41531;BME280;58990;46.284;13.126;2022-11-15T04:28:18;99485.78;;;8.63;83.00
41531;BME280;58990;46.284;13.126;2022-11-15T04:30:44;99495.91;;;8.66;82.97
41531;BME280;58990;46.284;13.126;2022-11-15T04:33:09;99493.97;;;8.68;83.05
41531;BME280;58990;46.284;13.126;2022-11-15T04:35:35;99492.31;;;8.67;83.15
41531;BME280;58990;46.284;13.126;2022-11-15T04:38:01;99490.38;;;8.69;83.28
41531;BME280;58990;46.284;13.126;2022-11-15T04:40:27;99489.53;;;8.69;83.57
41531;BME280;58990;46.284;13.126;2022-11-15T04:42:53;99482.03;;;8.66;83.73
41531;BME280;58990;46.284;13.126;2022-11-15T04:45:18;99483.84;;;8.65;84.37
41531;BME280;58990;46.284;13.126;2022-11-15T04:47:44;99489.38;;;8.62;84.04
41531;BME280;58990;46.284;13.126;2022-11-15T04:50:11;99485.16;;;8.61;83.44
41531;BME280;58990;46.284;13.126;2022-11-15T04:52:40;99492.31;;;8.67;83.15
41531;BME280;58990;46.284;13.126;2022-11-15T04:55:05;99486.44;;;8.65;83.05
41531;BME280;58990;46.284;13.126;2022-11-15T04:57:31;99489.88;;;8.66;83.24
41531;BME280;58990;46.284;13.126;2022-11-15T04:59:56;99490.69;;;8.66;83.20
41531;BME280;58990;46.284;13.126;2022-11-15T05:02:22;99487.25;;;8.66;82.92
41531;BME280;58990;46.284;13.126;2022-11-15T05:04:47;99484.13;;;8.70;82.88
41531;BME280;58990;46.284;13.126;2022-11-15T05:07:12;99486.13;;;8.68;82.50
41531;BME280;58990;46.284;13.126;2022-11-15T05:09:38;99486.75;;;8.70;81.93
41531;BME280;58990;46.284;13.126;2022-11-15T05:12:03;99496.91;;;8.73;81.98
41531;BME280;58990;46.284;13.126;2022-11-15T05:14:28;99483.66;;;8.75;82.36
41531;BME280;58990;46.284;13.126;2022-11-15T05:16:54;99494.31;;;8.73;82.26
41531;BME280;58990;46.284;13.126;2022-11-15T05:19:19;99489.72;;;8.75;82.84
41531;BME280;58990;46.284;13.126;2022-11-15T05:21:45;99491.03;;;8.71;83.00
41531;BME280;58990;46.284;13.126;2022-11-15T05:24:10;99491.69;;;8.73;82.54
41531;BME280;58990;46.284;13.126;2022-11-15T05:26:36;99499.03;;;8.78;82.34
41531;BME280;58990;46.284;13.126;2022-11-15T05:29:02;99497.25;;;8.79;82.39
41531;BME280;58990;46.284;13.126;2022-11-15T05:31:27;99499.53;;;8.73;82.33
41531;BME280;58990;46.284;13.126;2022-11-15T05:33:54;99496.25;;;8.71;82.98
41531;BME280;58990;46.284;13.126;2022-11-15T05:39:08;99495.09;;;8.74;83.12
41531;BME280;58990;46.284;13.126;2022-11-15T05:41:38;99498.88;;;8.71;82.86
41531;BME280;58990;46.284;13.126;2022-11-15T05:44:07;99496.09;;;8.81;82.73
41531;BME280;58990;46.284;13.126;2022-11-15T05:46:35;99497.72;;;8.74;82.69
41531;BME280;58990;46.284;13.126;2022-11-15T05:49:06;99499.53;;;8.65;83.66
41531;BME280;58990;46.284;13.126;2022-11-15T05:51:32;99502.63;;;8.52;84.22
41531;BME280;58990;46.284;13.126;2022-11-15T05:53:58;99500.97;;;8.51;84.56
41531;BME280;58990;46.284;13.126;2022-11-15T05:56:25;99507.34;;;8.57;84.52
41531;BME280;58990;46.284;13.126;2022-11-15T05:58:52;99506.38;;;8.66;83.58
41531;BME280;58990;46.284;13.126;2022-11-15T06:01:18;99514.72;;;8.62;84.03
41531;BME280;58990;46.284;13.126;2022-11-15T06:03:43;99510.31;;;8.62;83.81
41531;BME280;58990;46.284;13.126;2022-11-15T06:06:09;99510.00;;;8.65;83.55
41531;BME280;58990;46.284;13.126;2022-11-15T06:08:34;99511.94;;;8.63;83.80
41531;BME280;58990;46.284;13.126;2022-11-15T06:11:05;99505.41;;;8.59;83.76
41531;BME280;58990;46.284;13.126;2022-11-15T06:13:31;99494.25;;;8.57;83.78
41531;BME280;58990;46.284;13.126;2022-11-15T06:15:56;99498.88;;;8.63;83.31
41531;BME280;58990;46.284;13.126;2022-11-15T06:18:22;99506.72;;;8.71;82.13
41531;BME280;58990;46.284;13.126;2022-11-15T06:20:47;99502.28;;;8.64;82.84
41531;BME280;58990;46.284;13.126;2022-11-15T06:23:13;99505.22;;;8.52;82.92
41531;BME280;58990;46.284;13.126;2022-11-15T06:25:38;99507.66;;;8.46;84.19
41531;BME280;58990;46.284;13.126;2022-11-15T06:28:10;99508.44;;;8.38;84.57
41531;BME280;58990;46.284;13.126;2022-11-15T06:30:35;99508.25;;;8.31;85.01
41531;BME280;58990;46.284;13.126;2022-11-15T06:33:05;99513.47;;;8.31;84.47
41531;BME280;58990;46.284;13.126;2022-11-15T06:35:33;99514.78;;;8.35;84.94
41531;BME280;58990;46.284;13.126;2022-11-15T06:38:03;99510.22;;;8.29;84.50
41531;BME280;58990;46.284;13.126;2022-11-15T06:40:29;99515.44;;;8.29;84.41
41531;BME280;58990;46.284;13.126;2022-11-15T06:42:58;99521.13;;;8.24;84.59
41531;BME280;58990;46.284;13.126;2022-11-15T06:45:24;99519.53;;;8.32;84.48
41531;BME280;58990;46.284;13.126;2022-11-15T06:47:50;99517.09;;;8.38;84.21
41531;BME280;58990;46.284;13.126;2022-11-15T06:50:15;99525.97;;;8.46;84.37
41531;BME280;58990;46.284;13.126;2022-11-15T06:52:40;99521.72;;;8.53;83.84
41531;BME280;58990;46.284;13.126;2022-11-15T06:55:06;99523.03;;;8.57;83.54
41531;BME280;58990;46.284;13.126;2022-11-15T06:57:32;99506.56;;;8.73;83.33
41531;BME280;58990;46.284;13.126;2022-11-15T06:59:57;99499.88;;;8.79;82.99
41531;BME280;58990;46.284;13.126;2022-11-15T07:02:23;99507.06;;;8.85;82.80
41531;BME280;58990;46.284;13.126;2022-11-15T07:04:48;99507.88;;;8.94;82.05
41531;BME280;58990;46.284;13.126;2022-11-15T07:07:14;99510.00;;;9.06;80.91
41531;BME280;58990;46.284;13.126;2022-11-15T07:09:39;99500.81;;;9.35;78.75
41531;BME280;58990;46.284;13.126;2022-11-15T07:12:05;99495.75;;;9.82;75.90
41531;BME280;58990;46.284;13.126;2022-11-15T07:14:30;99493.28;;;10.20;74.00
41531;BME280;58990;46.284;13.126;2022-11-15T07:16:56;99500.94;;;9.98;74.21
41531;BME280;58990;46.284;13.126;2022-11-15T07:19:21;99500.75;;;9.60;75.80
41531;BME280;58990;46.284;13.126;2022-11-15T07:21:46;99508.16;;;9.40;76.73
41531;BME280;58990;46.284;13.126;2022-11-15T07:24:12;99510.97;;;9.30;77.82
41531;BME280;58990;46.284;13.126;2022-11-15T07:26:37;99520.13;;;9.34;77.07
41531;BME280;58990;46.284;13.126;2022-11-15T07:29:03;99524.22;;;9.37;77.11
41531;BME280;58990;46.284;13.126;2022-11-15T07:31:28;99522.25;;;9.39;77.58
41531;BME280;58990;46.284;13.126;2022-11-15T07:33:54;99520.44;;;9.39;77.79
41531;BME280;58990;46.284;13.126;2022-11-15T07:36:19;99531.22;;;9.45;76.83
41531;BME280;58990;46.284;13.126;2022-11-15T07:38:44;99523.38;;;9.45;76.47
41531;BME280;58990;46.284;13.126;2022-11-15T07:41:10;99520.75;;;9.53;75.98
41531;BME280;58990;46.284;13.126;2022-11-15T07:43:35;99510.09;;;9.54;76.00
41531;BME280;58990;46.284;13.126;2022-11-15T07:46:05;99516.16;;;9.55;76.24
41531;BME280;58990;46.284;13.126;2022-11-15T07:48:35;99508.97;;;9.57;76.28
41531;BME280;58990;46.284;13.126;2022-11-15T07:51:00;99505.47;;;9.65;76.04
41531;BME280;58990;46.284;13.126;2022-11-15T07:53:26;99508.16;;;9.96;75.51
41531;BME280;58990;46.284;13.126;2022-11-15T07:55:51;99502.69;;;10.69;71.66
41531;BME280;58990;46.284;13.126;2022-11-15T07:58:18;99504.91;;;10.80;70.76
41531;BME280;58990;46.284;13.126;2022-11-15T08:00:44;99503.28;;;10.79;70.48
41531;BME280;58990;46.284;13.126;2022-11-15T08:03:12;99502.34;;;10.72;70.64
41531;BME280;58990;46.284;13.126;2022-11-15T08:05:39;99497.09;;;10.72;70.48
41531;BME280;58990;46.284;13.126;2022-11-15T08:08:06;99499.13;;;10.85;69.56
41531;BME280;58990;46.284;13.126;2022-11-15T08:10:32;99502.97;;;10.74;69.79
41531;BME280;58990;46.284;13.126;2022-11-15T08:13:02;99509.00;;;10.83;69.87
41531;BME280;58990;46.284;13.126;2022-11-15T08:15:29;99504.59;;;10.98;69.13
41531;BME280;58990;46.284;13.126;2022-11-15T08:17:56;99500.56;;;12.30;65.66
41531;BME280;58990;46.284;13.126;2022-11-15T08:20:22;99492.13;;;15.92;54.77
41531;BME280;58990;46.284;13.126;2022-11-15T08:22:48;99485.41;;;17.80;47.59
41531;BME280;58990;46.284;13.126;2022-11-15T08:25:14;99492.28;;;17.51;47.98
41531;BME280;58990;46.284;13.126;2022-11-15T08:27:40;99490.16;;;17.96;46.66
41531;BME280;58990;46.284;13.126;2022-11-15T08:30:06;99492.03;;;19.87;43.01
41531;BME280;58990;46.284;13.126;2022-11-15T08:32:31;99488.16;;;20.81;40.08
41531;BME280;58990;46.284;13.126;2022-11-15T08:34:57;99497.28;;;19.46;41.88
41531;BME280;58990;46.284;13.126;2022-11-15T08:37:22;99490.75;;;18.71;44.36
41531;BME280;58990;46.284;13.126;2022-11-15T08:39:48;99492.84;;;17.34;47.23
41531;BME280;58990;46.284;13.126;2022-11-15T08:42:13;99499.91;;;15.94;51.03
41531;BME280;58990;46.284;13.126;2022-11-15T08:44:41;99500.44;;;14.84;53.64
41531;BME280;58990;46.284;13.126;2022-11-15T08:47:07;99504.00;;;14.42;55.76
41531;BME280;58990;46.284;13.126;2022-11-15T08:49:32;99498.88;;;13.72;58.46
41531;BME280;58990;46.284;13.126;2022-11-15T08:51:58;99494.72;;;13.56;58.97
41531;BME280;58990;46.284;13.126;2022-11-15T08:54:23;99498.31;;;13.42;60.59
41531;BME280;58990;46.284;13.126;2022-11-15T08:56:48;99500.50;;;13.73;59.28
41531;BME280;58990;46.284;13.126;2022-11-15T08:59:14;99494.59;;;13.65;59.07
41531;BME280;58990;46.284;13.126;2022-11-15T09:01:39;99495.47;;;13.78;59.24
41531;BME280;58990;46.284;13.126;2022-11-15T09:04:04;99493.81;;;13.77;59.14
41531;BME280;58990;46.284;13.126;2022-11-15T09:06:31;99493.22;;;13.75;58.52
41531;BME280;58990;46.284;13.126;2022-11-15T09:08:56;99497.88;;;13.73;58.63
41531;BME280;58990;46.284;13.126;2022-11-15T09:11:22;99499.69;;;13.38;59.23
41531;BME280;58990;46.284;13.126;2022-11-15T09:13:49;99494.75;;;13.06;60.73
41531;BME280;58990;46.284;13.126;2022-11-15T09:16:14;99500.53;;;13.17;60.00
41531;BME280;58990;46.284;13.126;2022-11-15T09:18:41;99498.03;;;13.08;61.08
41531;BME280;58990;46.284;13.126;2022-11-15T09:21:08;99489.84;;;13.53;59.58
41531;BME280;58990;46.284;13.126;2022-11-15T09:23:34;99495.00;;;14.17;58.84
41531;BME280;58990;46.284;13.126;2022-11-15T09:26:01;99487.63;;;15.07;56.04
41531;BME280;58990;46.284;13.126;2022-11-15T09:28:28;99483.16;;;16.71;51.71
41531;BME280;58990;46.284;13.126;2022-11-15T09:31:02;99485.56;;;18.04;48.30
41531;BME280;58990;46.284;13.126;2022-11-15T09:33:27;99488.19;;;20.24;40.87
41531;BME280;58990;46.284;13.126;2022-11-15T09:35:53;99479.47;;;23.06;36.53
41531;BME280;58990;46.284;13.126;2022-11-15T09:38:19;99483.34;;;23.79;34.26
41531;BME280;58990;46.284;13.126;2022-11-15T09:40:48;99476.50;;;25.17;31.81
41531;BME280;58990;46.284;13.126;2022-11-15T09:48:56;99473.59;;;26.74;29.15
41531;BME280;58990;46.284;13.126;2022-11-15T09:56:50;99468.22;;;24.98;30.43
41531;BME280;58990;46.284;13.126;2022-11-15T10:05:18;99450.94;;;25.45;29.38
41531;BME280;58990;46.284;13.126;2022-11-15T10:10:39;99447.84;;;24.56;31.58
41531;BME280;58990;46.284;13.126;2022-11-15T10:13:25;99437.91;;;22.98;34.73
41531;BME280;58990;46.284;13.126;2022-11-15T10:15:53;99427.97;;;23.31;33.15
41531;BME280;58990;46.284;13.126;2022-11-15T10:18:42;99422.09;;;24.85;30.75
41531;BME280;58990;46.284;13.126;2022-11-15T10:21:17;99423.97;;;24.64;30.50
41531;BME280;58990;46.284;13.126;2022-11-15T10:23:44;99423.97;;;24.49;30.42
41531;BME280;58990;46.284;13.126;2022-11-15T10:26:15;99416.00;;;25.45;29.15
41531;BME280;58990;46.284;13.126;2022-11-15T10:28:41;99415.31;;;25.09;29.94
41531;BME280;58990;46.284;13.126;2022-11-15T10:31:25;99417.81;;;24.64;32.08
41531;BME280;58990;46.284;13.126;2022-11-15T10:33:59;99396.34;;;22.80;34.67
41531;BME280;58990;46.284;13.126;2022-11-15T10:36:35;99404.31;;;23.87;33.86
41531;BME280;58990;46.284;13.126;2022-11-15T10:39:03;99398.59;;;23.52;33.17
41531;BME280;58990;46.284;13.126;2022-11-15T10:46:46;99382.56;;;21.25;38.44
41531;BME280;58990;46.284;13.126;2022-11-15T10:54:38;99370.19;;;18.54;43.67
41531;BME280;58990;46.284;13.126;2022-11-15T10:57:10;99372.16;;;17.92;45.51
41531;BME280;58990;46.284;13.126;2022-11-15T10:59:47;99370.78;;;17.71;45.87
41531;BME280;58990;46.284;13.126;2022-11-15T11:05:28;99356.03;;;18.18;45.31
41531;BME280;58990;46.284;13.126;2022-11-15T11:08:00;99354.06;;;18.01;45.56
41531;BME280;58990;46.284;13.126;2022-11-15T11:10:27;99354.41;;;17.44;47.65
41531;BME280;58990;46.284;13.126;2022-11-15T11:12:53;99345.78;;;17.79;47.10
41531;BME280;58990;46.284;13.126;2022-11-15T11:15:18;99344.47;;;17.70;47.95
41531;BME280;58990;46.284;13.126;2022-11-15T11:26:18;99330.91;;;18.44;45.84
41531;BME280;58990;46.284;13.126;2022-11-15T11:32:08;99322.22;;;18.96;44.70
41531;BME280;58990;46.284;13.126;2022-11-15T11:34:41;99309.44;;;20.08;41.88
41531;BME280;58990;46.284;13.126;2022-11-15T11:40:01;99311.44;;;19.84;43.49
41531;BME280;58990;46.284;13.126;2022-11-15T11:48:13;99299.47;;;16.95;50.75
41531;BME280;58990;46.284;13.126;2022-11-15T11:50:41;99295.31;;;16.81;52.14
41531;BME280;58990;46.284;13.126;2022-11-15T11:53:29;99298.03;;;16.74;52.65
41531;BME280;58990;46.284;13.126;2022-11-15T11:56:01;99291.16;;;16.67;51.79
41531;BME280;58990;46.284;13.126;2022-11-15T11:58:40;99283.00;;;16.24;53.81
41531;BME280;58990;46.284;13.126;2022-11-15T12:01:29;99283.88;;;16.18;54.11
41531;BME280;58990;46.284;13.126;2022-11-15T12:04:03;99277.66;;;16.31;54.05
41531;BME280;58990;46.284;13.126;2022-11-15T12:06:37;99274.84;;;16.26;54.96
41531;BME280;58990;46.284;13.126;2022-11-15T12:12:32;99269.25;;;16.16;54.82
41531;BME280;58990;46.284;13.126;2022-11-15T12:17:50;99270.09;;;16.09;53.60
41531;BME280;58990;46.284;13.126;2022-11-15T12:20:19;99275.19;;;15.47;55.31
41531;BME280;58990;46.284;13.126;2022-11-15T12:23:13;99275.47;;;15.32;57.44
41531;BME280;58990;46.284;13.126;2022-11-15T12:33:42;99264.91;;;15.32;59.00
41531;BME280;58990;46.284;13.126;2022-11-15T12:39:09;99260.50;;;15.12;59.46
41531;BME280;58990;46.284;13.126;2022-11-15T12:41:37;99256.91;;;15.00;59.02
41531;BME280;58990;46.284;13.126;2022-11-15T12:44:04;99270.41;;;14.72;60.47
41531;BME280;58990;46.284;13.126;2022-11-15T13:02:40;99238.22;;;14.95;58.81
41531;BME280;58990;46.284;13.126;2022-11-15T13:10:34;99239.97;;;14.36;59.51
41531;BME280;58990;46.284;13.126;2022-11-15T13:13:04;99230.63;;;14.33;60.50
41531;BME280;58990;46.284;13.126;2022-11-15T13:18:31;99229.81;;;14.33;59.34
41531;BME280;58990;46.284;13.126;2022-11-15T13:20:57;99213.97;;;14.39;59.55
41531;BME280;58990;46.284;13.126;2022-11-15T13:23:23;99219.31;;;13.99;60.48
41531;BME280;58990;46.284;13.126;2022-11-15T13:28:37;99208.75;;;13.99;62.13
41531;BME280;58990;46.284;13.126;2022-11-15T13:31:28;99206.72;;;13.88;62.30
41531;BME280;58990;46.284;13.126;2022-11-15T13:33:58;99205.09;;;13.93;62.07
41531;BME280;58990;46.284;13.126;2022-11-15T13:36:28;99206.31;;;13.98;63.65
41531;BME280;58990;46.284;13.126;2022-11-15T13:39:04;99205.50;;;13.84;63.89
41531;BME280;58990;46.284;13.126;2022-11-15T13:41:32;99210.59;;;13.85;63.93
41531;BME280;58990;46.284;13.126;2022-11-15T13:43:59;99209.94;;;13.56;64.85
41531;BME280;58990;46.284;13.126;2022-11-15T13:49:10;99208.94;;;13.91;65.03
41531;BME280;58990;46.284;13.126;2022-11-15T13:57:29;99209.16;;;13.89;65.67
41531;BME280;58990;46.284;13.126;2022-11-15T14:00:03;99210.38;;;13.80;65.50
41531;BME280;58990;46.284;13.126;2022-11-15T14:02:32;99212.41;;;13.65;66.49
41531;BME280;58990;46.284;13.126;2022-11-15T14:05:02;99206.72;;;13.61;66.14
41531;BME280;58990;46.284;13.126;2022-11-15T14:07:29;99198.19;;;13.59;66.56
41531;BME280;58990;46.284;13.126;2022-11-15T14:09:55;99199.00;;;13.53;66.26
41531;BME280;58990;46.284;13.126;2022-11-15T14:12:30;99196.56;;;13.44;66.72
41531;BME280;58990;46.284;13.126;2022-11-15T14:15:02;99195.94;;;13.49;67.25
41531;BME280;58990;46.284;13.126;2022-11-15T14:17:42;99200.00;;;13.45;67.45
41531;BME280;58990;46.284;13.126;2022-11-15T14:23:03;99191.28;;;13.44;67.98
41531;BME280;58990;46.284;13.126;2022-11-15T14:25:33;99193.72;;;13.53;68.13
41531;BME280;58990;46.284;13.126;2022-11-15T14:31:01;99186.41;;;13.41;68.75
41531;BME280;58990;46.284;13.126;2022-11-15T14:38:51;99179.00;;;13.03;69.87
41531;BME280;58990;46.284;13.126;2022-11-15T14:41:25;99174.59;;;13.10;70.41
41531;BME280;58990;46.284;13.126;2022-11-15T14:43:52;99175.78;;;13.08;70.38
41531;BME280;58990;46.284;13.126;2022-11-15T14:46:18;99170.88;;;12.98;70.40
41531;BME280;58990;46.284;13.126;2022-11-15T14:48:44;99170.50;;;13.01;69.74
41531;BME280;58990;46.284;13.126;2022-11-15T14:51:18;99174.91;;;12.94;70.40
41531;BME280;58990;46.284;13.126;2022-11-15T14:53:44;99170.44;;;12.81;71.16
41531;BME280;58990;46.284;13.126;2022-11-15T14:56:10;99172.50;;;12.99;71.22
41531;BME280;58990;46.284;13.126;2022-11-15T14:58:36;99164.00;;;12.97;71.23
41531;BME280;58990;46.284;13.126;2022-11-15T15:01:05;99163.34;;;12.88;71.86
41531;BME280;58990;46.284;13.126;2022-11-15T15:03:35;99161.53;;;12.89;72.58
41531;BME280;58990;46.284;13.126;2022-11-15T15:06:01;99158.88;;;12.89;71.90
41531;BME280;58990;46.284;13.126;2022-11-15T15:08:26;99153.19;;;12.78;72.90
41531;BME280;58990;46.284;13.126;2022-11-15T15:10:51;99147.31;;;12.76;73.20
41531;BME280;58990;46.284;13.126;2022-11-15T15:13:20;99147.72;;;12.80;72.36
41531;BME280;58990;46.284;13.126;2022-11-15T15:15:47;99158.66;;;12.70;72.82
41531;BME280;58990;46.284;13.126;2022-11-15T15:18:12;99156.38;;;12.67;73.53
41531;BME280;58990;46.284;13.126;2022-11-15T15:20:39;99150.50;;;12.65;72.81
41531;BME280;58990;46.284;13.126;2022-11-15T15:23:15;99146.41;;;12.49;73.63
41531;BME280;58990;46.284;13.126;2022-11-15T15:25:41;99150.84;;;12.49;74.24
41531;BME280;58990;46.284;13.126;2022-11-15T15:28:07;99149.16;;;12.34;74.08
41531;BME280;58990;46.284;13.126;2022-11-15T15:30:32;99145.53;;;12.35;75.34
41531;BME280;58990;46.284;13.126;2022-11-15T15:32:57;99141.50;;;12.39;74.93
41531;BME280;58990;46.284;13.126;2022-11-15T15:35:24;99136.97;;;12.26;75.15
41531;BME280;58990;46.284;13.126;2022-11-15T15:37:51;99130.34;;;12.37;74.61
41531;BME280;58990;46.284;13.126;2022-11-15T15:40:19;99127.63;;;12.24;75.26
41531;BME280;58990;46.284;13.126;2022-11-15T15:42:46;99127.84;;;12.22;76.15
41531;BME280;58990;46.284;13.126;2022-11-15T15:45:13;99125.84;;;12.24;75.77
41531;BME280;58990;46.284;13.126;2022-11-15T15:47:40;99129.91;;;12.27;75.26
41531;BME280;58990;46.284;13.126;2022-11-15T15:50:28;99128.00;;;12.14;77.36
41531;BME280;58990;46.284;13.126;2022-11-15T15:52:56;99123.94;;;12.11;76.70
41531;BME280;58990;46.284;13.126;2022-11-15T15:55:22;99127.00;;;12.15;76.75
41531;BME280;58990;46.284;13.126;2022-11-15T15:57:48;99119.47;;;12.05;77.30